sensor_id;sensor_type;location;lat;lon;timestamp;P1;durP1;ratioP1;P2;durP2;ratioP2
19521;SDS011;9905;52.126;5.596;2023-12-20T00:00:28;34.75;;;32.17;;
19521;SDS011;9905;52.126;5.596;2023-12-20T00:02:56;36.03;;;33.45;;
19521;SDS011;9905;52.126;5.596;2023-12-20T00:05:24;36.53;;;33.53;;
19521;SDS011;9905;52.126;5.596;2023-12-20T00:07:50;36.55;;;33.75;;
19521;SDS011;9905;52.126;5.596;2023-12-20T00:10:17;36.65;;;34.15;;
19521;SDS011;9905;52.126;5.596;2023-12-20T00:12:44;35.97;;;33.88;;
19521;SDS011;9905;52.126;5.596;2023-12-20T00:15:11;36.35;;;33.67;;
19521;SDS011;9905;52.126;5.596;2023-12-20T00:17:38;34.05;;;31.58;;
19521;SDS011;9905;52.126;5.596;2023-12-20T00:20:06;36.00;;;33.13;;
19521;SDS011;9905;52.126;5.596;2023-12-20T00:22:34;34.80;;;32.80;;
19521;SDS011;9905;52.126;5.596;2023-12-20T00:25:00;34.35;;;31.95;;
19521;SDS011;9905;52.126;5.596;2023-12-20T00:27:27;35.25;;;32.70;;
19521;SDS011;9905;52.126;5.596;2023-12-20T00:29:54;36.05;;;33.17;;
19521;SDS011;9905;52.126;5.596;2023-12-20T00:32:21;34.17;;;32.25;;
19521;SDS011;9905;52.126;5.596;2023-12-20T00:34:48;36.55;;;33.67;;
19521;SDS011;9905;52.126;5.596;2023-12-20T00:37:16;34.25;;;32.13;;
19521;SDS011;9905;52.126;5.596;2023-12-20T00:39:43;34.65;;;32.33;;
19521;SDS011;9905;52.126;5.596;2023-12-20T00:42:10;34.72;;;32.53;;
19521;SDS011;9905;52.126;5.596;2023-12-20T00:44:36;36.40;;;33.80;;
19521;SDS011;9905;52.126;5.596;2023-12-20T00:47:03;35.63;;;33.40;;
19521;SDS011;9905;52.126;5.596;2023-12-20T00:49:30;36.00;;;33.63;;
19521;SDS011;9905;52.126;5.596;2023-12-20T00:51:57;34.38;;;32.28;;
19521;SDS011;9905;52.126;5.596;2023-12-20T00:54:25;34.28;;;32.05;;
19521;SDS011;9905;52.126;5.596;2023-12-20T00:56:51;35.58;;;32.97;;
19521;SDS011;9905;52.126;5.596;2023-12-20T00:59:18;36.10;;;33.67;;
19521;SDS011;9905;52.126;5.596;2023-12-20T01:01:45;35.35;;;32.58;;
19521;SDS011;9905;52.126;5.596;2023-12-20T01:04:12;35.40;;;33.00;;
19521;SDS011;9905;52.126;5.596;2023-12-20T01:06:39;35.67;;;32.95;;
19521;SDS011;9905;52.126;5.596;2023-12-20T01:09:05;34.67;;;32.42;;
19521;SDS011;9905;52.126;5.596;2023-12-20T01:11:33;34.88;;;32.92;;
19521;SDS011;9905;52.126;5.596;2023-12-20T01:14:00;35.35;;;33.25;;
19521;SDS011;9905;52.126;5.596;2023-12-20T01:16:27;35.28;;;32.55;;
19521;SDS011;9905;52.126;5.596;2023-12-20T01:18:53;35.85;;;33.83;;
19521;SDS011;9905;52.126;5.596;2023-12-20T01:21:20;36.47;;;33.58;;
19521;SDS011;9905;52.126;5.596;2023-12-20T01:23:47;35.38;;;32.97;;
19521;SDS011;9905;52.126;5.596;2023-12-20T01:26:14;37.20;;;33.97;;
19521;SDS011;9905;52.126;5.596;2023-12-20T01:28:43;36.00;;;33.70;;
19521;SDS011;9905;52.126;5.596;2023-12-20T01:31:09;36.75;;;34.45;;
19521;SDS011;9905;52.126;5.596;2023-12-20T01:33:36;34.90;;;32.58;;
19521;SDS011;9905;52.126;5.596;2023-12-20T01:36:03;35.42;;;33.35;;
19521;SDS011;9905;52.126;5.596;2023-12-20T01:38:31;35.85;;;33.58;;
19521;SDS011;9905;52.126;5.596;2023-12-20T01:40:58;37.20;;;34.47;;
19521;SDS011;9905;52.126;5.596;2023-12-20T01:43:25;35.65;;;33.22;;
19521;SDS011;9905;52.126;5.596;2023-12-20T01:45:53;36.08;;;33.47;;
19521;SDS011;9905;52.126;5.596;2023-12-20T01:48:22;36.55;;;34.30;;
19521;SDS011;9905;52.126;5.596;2023-12-20T01:50:50;35.45;;;33.08;;
19521;SDS011;9905;52.126;5.596;2023-12-20T01:53:18;36.53;;;34.42;;
19521;SDS011;9905;52.126;5.596;2023-12-20T01:55:47;38.35;;;35.20;;
19521;SDS011;9905;52.126;5.596;2023-12-20T01:58:16;37.05;;;33.83;;
19521;SDS011;9905;52.126;5.596;2023-12-20T02:00:43;35.88;;;33.65;;
19521;SDS011;9905;52.126;5.596;2023-12-20T02:03:12;37.45;;;35.10;;
19521;SDS011;9905;52.126;5.596;2023-12-20T02:05:38;37.58;;;34.67;;
19521;SDS011;9905;52.126;5.596;2023-12-20T02:08:06;39.08;;;36.03;;
19521;SDS011;9905;52.126;5.596;2023-12-20T02:10:33;38.58;;;35.80;;
19521;SDS011;9905;52.126;5.596;2023-12-20T02:13:00;37.33;;;34.63;;
19521;SDS011;9905;52.126;5.596;2023-12-20T02:15:27;37.10;;;34.28;;
19521;SDS011;9905;52.126;5.596;2023-12-20T02:17:54;36.80;;;34.30;;
19521;SDS011;9905;52.126;5.596;2023-12-20T02:20:22;36.65;;;34.33;;
19521;SDS011;9905;52.126;5.596;2023-12-20T02:22:50;38.50;;;35.45;;
19521;SDS011;9905;52.126;5.596;2023-12-20T02:25:17;37.53;;;34.90;;
19521;SDS011;9905;52.126;5.596;2023-12-20T02:27:43;38.53;;;35.75;;
19521;SDS011;9905;52.126;5.596;2023-12-20T02:30:10;37.22;;;34.78;;
19521;SDS011;9905;52.126;5.596;2023-12-20T02:32:37;38.08;;;35.15;;
19521;SDS011;9905;52.126;5.596;2023-12-20T02:35:04;37.42;;;34.70;;
19521;SDS011;9905;52.126;5.596;2023-12-20T02:37:32;37.65;;;34.55;;
19521;SDS011;9905;52.126;5.596;2023-12-20T02:40:00;39.47;;;36.30;;
19521;SDS011;9905;52.126;5.596;2023-12-20T02:42:28;38.65;;;35.75;;
19521;SDS011;9905;52.126;5.596;2023-12-20T02:44:54;39.08;;;36.17;;
19521;SDS011;9905;52.126;5.596;2023-12-20T02:47:21;37.13;;;34.55;;
19521;SDS011;9905;52.126;5.596;2023-12-20T02:49:48;38.10;;;35.40;;
19521;SDS011;9905;52.126;5.596;2023-12-20T02:52:15;37.58;;;34.60;;
19521;SDS011;9905;52.126;5.596;2023-12-20T02:54:41;38.85;;;35.97;;
19521;SDS011;9905;52.126;5.596;2023-12-20T02:57:10;37.92;;;35.05;;
19521;SDS011;9905;52.126;5.596;2023-12-20T02:59:36;38.92;;;35.85;;
19521;SDS011;9905;52.126;5.596;2023-12-20T03:02:03;38.47;;;36.00;;
19521;SDS011;9905;52.126;5.596;2023-12-20T03:04:30;37.95;;;35.15;;
19521;SDS011;9905;52.126;5.596;2023-12-20T03:06:56;38.33;;;35.35;;
19521;SDS011;9905;52.126;5.596;2023-12-20T03:09:23;38.25;;;35.65;;
19521;SDS011;9905;52.126;5.596;2023-12-20T03:11:50;38.13;;;35.58;;
19521;SDS011;9905;52.126;5.596;2023-12-20T03:14:18;38.25;;;35.72;;
19521;SDS011;9905;52.126;5.596;2023-12-20T03:16:46;37.50;;;34.42;;
19521;SDS011;9905;52.126;5.596;2023-12-20T03:19:13;39.42;;;36.20;;
19521;SDS011;9905;52.126;5.596;2023-12-20T03:21:41;39.83;;;36.03;;
19521;SDS011;9905;52.126;5.596;2023-12-20T03:24:07;41.13;;;37.60;;
19521;SDS011;9905;52.126;5.596;2023-12-20T03:26:34;39.20;;;35.92;;
19521;SDS011;9905;52.126;5.596;2023-12-20T03:29:01;37.28;;;34.78;;
19521;SDS011;9905;52.126;5.596;2023-12-20T03:31:29;37.17;;;34.65;;
19521;SDS011;9905;52.126;5.596;2023-12-20T03:33:56;37.95;;;35.42;;
19521;SDS011;9905;52.126;5.596;2023-12-20T03:36:22;38.47;;;34.90;;
19521;SDS011;9905;52.126;5.596;2023-12-20T03:38:49;37.42;;;34.63;;
19521;SDS011;9905;52.126;5.596;2023-12-20T03:41:16;37.63;;;35.22;;
19521;SDS011;9905;52.126;5.596;2023-12-20T03:43:42;39.65;;;35.83;;
19521;SDS011;9905;52.126;5.596;2023-12-20T03:46:09;37.60;;;34.55;;
19521;SDS011;9905;52.126;5.596;2023-12-20T03:48:38;38.35;;;35.00;;
19521;SDS011;9905;52.126;5.596;2023-12-20T03:51:04;35.60;;;33.40;;
19521;SDS011;9905;52.126;5.596;2023-12-20T03:53:31;38.47;;;35.75;;
19521;SDS011;9905;52.126;5.596;2023-12-20T03:55:58;38.15;;;34.92;;
19521;SDS011;9905;52.126;5.596;2023-12-20T03:58:25;36.83;;;34.28;;
19521;SDS011;9905;52.126;5.596;2023-12-20T04:00:52;36.70;;;33.67;;
19521;SDS011;9905;52.126;5.596;2023-12-20T04:03:18;39.17;;;36.03;;
19521;SDS011;9905;52.126;5.596;2023-12-20T04:05:47;36.22;;;33.78;;
19521;SDS011;9905;52.126;5.596;2023-12-20T04:08:13;37.83;;;34.28;;
19521;SDS011;9905;52.126;5.596;2023-12-20T04:10:40;36.88;;;34.00;;
19521;SDS011;9905;52.126;5.596;2023-12-20T04:13:07;38.45;;;35.42;;
19521;SDS011;9905;52.126;5.596;2023-12-20T04:15:34;38.35;;;34.67;;
19521;SDS011;9905;52.126;5.596;2023-12-20T04:18:00;38.33;;;34.15;;
19521;SDS011;9905;52.126;5.596;2023-12-20T04:20:27;39.55;;;35.95;;
19521;SDS011;9905;52.126;5.596;2023-12-20T04:22:55;37.97;;;35.00;;
19521;SDS011;9905;52.126;5.596;2023-12-20T04:25:22;36.20;;;33.72;;
19521;SDS011;9905;52.126;5.596;2023-12-20T04:27:49;38.53;;;35.55;;
19521;SDS011;9905;52.126;5.596;2023-12-20T04:30:15;38.50;;;34.97;;
19521;SDS011;9905;52.126;5.596;2023-12-20T04:32:42;34.78;;;31.85;;
19521;SDS011;9905;52.126;5.596;2023-12-20T04:35:09;35.40;;;32.30;;
19521;SDS011;9905;52.126;5.596;2023-12-20T04:37:35;37.15;;;33.88;;
19521;SDS011;9905;52.126;5.596;2023-12-20T04:40:04;37.13;;;34.00;;
19521;SDS011;9905;52.126;5.596;2023-12-20T04:42:33;34.22;;;31.80;;
19521;SDS011;9905;52.126;5.596;2023-12-20T04:44:59;33.65;;;31.15;;
19521;SDS011;9905;52.126;5.596;2023-12-20T04:47:26;35.10;;;32.55;;
19521;SDS011;9905;52.126;5.596;2023-12-20T04:49:53;34.75;;;31.88;;
19521;SDS011;9905;52.126;5.596;2023-12-20T04:52:20;35.65;;;32.55;;
19521;SDS011;9905;52.126;5.596;2023-12-20T04:54:46;35.25;;;32.15;;
19521;SDS011;9905;52.126;5.596;2023-12-20T04:57:14;35.10;;;31.95;;
19521;SDS011;9905;52.126;5.596;2023-12-20T04:59:41;33.80;;;30.67;;
19521;SDS011;9905;52.126;5.596;2023-12-20T05:02:08;34.00;;;30.38;;
19521;SDS011;9905;52.126;5.596;2023-12-20T05:04:35;32.55;;;29.70;;
19521;SDS011;9905;52.126;5.596;2023-12-20T05:07:01;32.75;;;30.17;;
19521;SDS011;9905;52.126;5.596;2023-12-20T05:09:29;32.85;;;30.05;;
19521;SDS011;9905;52.126;5.596;2023-12-20T05:11:56;31.80;;;29.77;;
19521;SDS011;9905;52.126;5.596;2023-12-20T05:14:24;31.30;;;28.63;;
19521;SDS011;9905;52.126;5.596;2023-12-20T05:16:51;29.25;;;27.10;;
19521;SDS011;9905;52.126;5.596;2023-12-20T05:19:18;31.90;;;28.92;;
19521;SDS011;9905;52.126;5.596;2023-12-20T05:21:44;29.75;;;27.50;;
19521;SDS011;9905;52.126;5.596;2023-12-20T05:24:11;29.33;;;27.38;;
19521;SDS011;9905;52.126;5.596;2023-12-20T05:26:38;29.90;;;28.00;;
19521;SDS011;9905;52.126;5.596;2023-12-20T05:29:05;29.42;;;27.02;;
19521;SDS011;9905;52.126;5.596;2023-12-20T05:31:33;29.50;;;27.20;;
19521;SDS011;9905;52.126;5.596;2023-12-20T05:33:59;29.48;;;27.08;;
19521;SDS011;9905;52.126;5.596;2023-12-20T05:36:26;28.98;;;26.10;;
19521;SDS011;9905;52.126;5.596;2023-12-20T05:38:53;29.83;;;26.15;;
19521;SDS011;9905;52.126;5.596;2023-12-20T05:41:20;28.33;;;25.95;;
19521;SDS011;9905;52.126;5.596;2023-12-20T05:43:47;28.58;;;26.67;;
19521;SDS011;9905;52.126;5.596;2023-12-20T05:46:14;30.10;;;27.65;;
19521;SDS011;9905;52.126;5.596;2023-12-20T05:48:42;28.83;;;26.58;;
19521;SDS011;9905;52.126;5.596;2023-12-20T05:51:11;29.15;;;26.88;;
19521;SDS011;9905;52.126;5.596;2023-12-20T05:53:38;26.23;;;24.15;;
19521;SDS011;9905;52.126;5.596;2023-12-20T05:56:05;27.35;;;25.15;;
19521;SDS011;9905;52.126;5.596;2023-12-20T05:58:32;27.50;;;25.10;;
19521;SDS011;9905;52.126;5.596;2023-12-20T06:00:59;27.45;;;24.73;;
19521;SDS011;9905;52.126;5.596;2023-12-20T06:03:25;26.98;;;24.30;;
19521;SDS011;9905;52.126;5.596;2023-12-20T06:05:53;26.73;;;23.88;;
19521;SDS011;9905;52.126;5.596;2023-12-20T06:08:20;27.27;;;25.10;;
19521;SDS011;9905;52.126;5.596;2023-12-20T06:10:47;25.75;;;23.65;;
19521;SDS011;9905;52.126;5.596;2023-12-20T06:13:14;25.00;;;23.30;;
19521;SDS011;9905;52.126;5.596;2023-12-20T06:15:41;28.75;;;23.98;;
19521;SDS011;9905;52.126;5.596;2023-12-20T06:18:07;23.95;;;22.33;;
19521;SDS011;9905;52.126;5.596;2023-12-20T06:20:35;26.52;;;24.08;;
19521;SDS011;9905;52.126;5.596;2023-12-20T06:23:03;24.27;;;22.20;;
19521;SDS011;9905;52.126;5.596;2023-12-20T06:25:30;24.75;;;22.60;;
19521;SDS011;9905;52.126;5.596;2023-12-20T06:27:57;26.08;;;23.40;;
19521;SDS011;9905;52.126;5.596;2023-12-20T06:30:23;25.20;;;23.10;;
19521;SDS011;9905;52.126;5.596;2023-12-20T06:32:52;24.15;;;22.25;;
19521;SDS011;9905;52.126;5.596;2023-12-20T06:35:19;24.20;;;21.88;;
19521;SDS011;9905;52.126;5.596;2023-12-20T06:37:46;25.45;;;22.85;;
19521;SDS011;9905;52.126;5.596;2023-12-20T06:40:14;24.23;;;22.60;;
19521;SDS011;9905;52.126;5.596;2023-12-20T06:42:42;25.20;;;23.10;;
19521;SDS011;9905;52.126;5.596;2023-12-20T06:45:09;22.17;;;20.63;;
19521;SDS011;9905;52.126;5.596;2023-12-20T06:47:36;23.30;;;21.30;;
19521;SDS011;9905;52.126;5.596;2023-12-20T06:50:03;22.60;;;20.70;;
19521;SDS011;9905;52.126;5.596;2023-12-20T06:52:33;24.10;;;22.08;;
19521;SDS011;9905;52.126;5.596;2023-12-20T06:55:00;22.63;;;20.95;;
19521;SDS011;9905;52.126;5.596;2023-12-20T06:57:28;23.63;;;21.45;;
19521;SDS011;9905;52.126;5.596;2023-12-20T06:59:56;24.48;;;22.20;;
19521;SDS011;9905;52.126;5.596;2023-12-20T07:02:22;23.95;;;21.85;;
19521;SDS011;9905;52.126;5.596;2023-12-20T07:04:49;22.38;;;20.70;;
19521;SDS011;9905;52.126;5.596;2023-12-20T07:07:16;23.17;;;21.50;;
19521;SDS011;9905;52.126;5.596;2023-12-20T07:09:43;24.58;;;22.17;;
19521;SDS011;9905;52.126;5.596;2023-12-20T07:12:09;25.83;;;22.25;;
19521;SDS011;9905;52.126;5.596;2023-12-20T07:14:36;25.10;;;20.75;;
19521;SDS011;9905;52.126;5.596;2023-12-20T07:17:03;23.30;;;21.50;;
19521;SDS011;9905;52.126;5.596;2023-12-20T07:19:30;22.55;;;20.80;;
19521;SDS011;9905;52.126;5.596;2023-12-20T07:21:57;23.52;;;21.35;;
19521;SDS011;9905;52.126;5.596;2023-12-20T07:24:24;24.13;;;21.73;;
19521;SDS011;9905;52.126;5.596;2023-12-20T07:26:51;26.15;;;24.08;;
19521;SDS011;9905;52.126;5.596;2023-12-20T07:29:17;25.30;;;23.05;;
19521;SDS011;9905;52.126;5.596;2023-12-20T07:31:45;24.00;;;21.90;;
19521;SDS011;9905;52.126;5.596;2023-12-20T07:34:12;23.98;;;21.83;;
19521;SDS011;9905;52.126;5.596;2023-12-20T07:36:39;23.02;;;21.63;;
19521;SDS011;9905;52.126;5.596;2023-12-20T07:39:05;23.30;;;20.88;;
19521;SDS011;9905;52.126;5.596;2023-12-20T07:41:32;24.85;;;22.83;;
19521;SDS011;9905;52.126;5.596;2023-12-20T07:43:59;24.73;;;22.30;;
19521;SDS011;9905;52.126;5.596;2023-12-20T07:46:26;24.35;;;22.65;;
19521;SDS011;9905;52.126;5.596;2023-12-20T07:48:54;24.08;;;22.05;;
19521;SDS011;9905;52.126;5.596;2023-12-20T07:51:20;23.35;;;21.30;;
19521;SDS011;9905;52.126;5.596;2023-12-20T07:53:47;24.30;;;22.08;;
19521;SDS011;9905;52.126;5.596;2023-12-20T07:56:14;22.17;;;20.50;;
19521;SDS011;9905;52.126;5.596;2023-12-20T07:58:41;23.23;;;21.23;;
19521;SDS011;9905;52.126;5.596;2023-12-20T08:01:08;25.23;;;22.15;;
19521;SDS011;9905;52.126;5.596;2023-12-20T08:03:35;22.67;;;20.63;;
19521;SDS011;9905;52.126;5.596;2023-12-20T08:06:03;21.95;;;19.88;;
19521;SDS011;9905;52.126;5.596;2023-12-20T08:08:30;21.35;;;19.33;;
19521;SDS011;9905;52.126;5.596;2023-12-20T08:10:57;22.63;;;20.58;;
19521;SDS011;9905;52.126;5.596;2023-12-20T08:13:25;22.23;;;20.50;;
19521;SDS011;9905;52.126;5.596;2023-12-20T08:15:52;21.92;;;19.88;;
19521;SDS011;9905;52.126;5.596;2023-12-20T08:18:21;22.73;;;20.67;;
19521;SDS011;9905;52.126;5.596;2023-12-20T08:20:47;20.60;;;18.95;;
19521;SDS011;9905;52.126;5.596;2023-12-20T08:23:16;21.95;;;20.02;;
19521;SDS011;9905;52.126;5.596;2023-12-20T08:25:42;21.58;;;19.38;;
19521;SDS011;9905;52.126;5.596;2023-12-20T08:28:09;22.38;;;20.23;;
19521;SDS011;9905;52.126;5.596;2023-12-20T08:30:36;22.20;;;20.02;;
19521;SDS011;9905;52.126;5.596;2023-12-20T08:33:03;21.70;;;19.48;;
19521;SDS011;9905;52.126;5.596;2023-12-20T08:35:30;22.52;;;19.65;;
19521;SDS011;9905;52.126;5.596;2023-12-20T08:37:57;22.20;;;20.50;;
19521;SDS011;9905;52.126;5.596;2023-12-20T08:40:25;22.45;;;20.30;;
19521;SDS011;9905;52.126;5.596;2023-12-20T08:42:51;23.98;;;21.33;;
19521;SDS011;9905;52.126;5.596;2023-12-20T08:45:18;22.35;;;20.55;;
19521;SDS011;9905;52.126;5.596;2023-12-20T08:47:45;20.13;;;18.52;;
19521;SDS011;9905;52.126;5.596;2023-12-20T08:50:12;21.10;;;19.25;;
19521;SDS011;9905;52.126;5.596;2023-12-20T08:52:40;21.67;;;20.17;;
19521;SDS011;9905;52.126;5.596;2023-12-20T08:55:07;24.40;;;22.35;;
19521;SDS011;9905;52.126;5.596;2023-12-20T08:57:36;24.02;;;22.08;;
19521;SDS011;9905;52.126;5.596;2023-12-20T09:00:03;23.02;;;21.23;;
19521;SDS011;9905;52.126;5.596;2023-12-20T09:02:32;21.08;;;19.73;;
19521;SDS011;9905;52.126;5.596;2023-12-20T09:05:01;24.10;;;21.73;;
19521;SDS011;9905;52.126;5.596;2023-12-20T09:07:27;25.02;;;22.92;;
19521;SDS011;9905;52.126;5.596;2023-12-20T09:09:55;24.45;;;22.80;;
19521;SDS011;9905;52.126;5.596;2023-12-20T09:12:22;24.73;;;23.15;;
19521;SDS011;9905;52.126;5.596;2023-12-20T09:14:50;28.13;;;25.20;;
19521;SDS011;9905;52.126;5.596;2023-12-20T09:17:18;27.63;;;25.15;;
19521;SDS011;9905;52.126;5.596;2023-12-20T09:19:45;28.00;;;25.58;;
19521;SDS011;9905;52.126;5.596;2023-12-20T09:22:12;27.38;;;24.75;;
19521;SDS011;9905;52.126;5.596;2023-12-20T09:24:39;27.60;;;25.48;;
19521;SDS011;9905;52.126;5.596;2023-12-20T09:27:06;27.90;;;25.48;;
19521;SDS011;9905;52.126;5.596;2023-12-20T09:29:32;28.73;;;25.98;;
19521;SDS011;9905;52.126;5.596;2023-12-20T09:32:00;28.85;;;26.52;;
19521;SDS011;9905;52.126;5.596;2023-12-20T09:34:27;28.38;;;25.92;;
19521;SDS011;9905;52.126;5.596;2023-12-20T09:36:54;29.42;;;27.00;;
19521;SDS011;9905;52.126;5.596;2023-12-20T09:39:21;30.00;;;27.92;;
19521;SDS011;9905;52.126;5.596;2023-12-20T09:41:49;28.02;;;25.70;;
19521;SDS011;9905;52.126;5.596;2023-12-20T09:44:26;28.95;;;26.15;;
19521;SDS011;9905;52.126;5.596;2023-12-20T09:46:52;29.60;;;27.30;;
19521;SDS011;9905;52.126;5.596;2023-12-20T09:49:23;30.95;;;28.15;;
19521;SDS011;9905;52.126;5.596;2023-12-20T09:51:51;31.67;;;28.60;;
19521;SDS011;9905;52.126;5.596;2023-12-20T09:54:20;31.15;;;28.52;;
19521;SDS011;9905;52.126;5.596;2023-12-20T09:56:48;28.88;;;26.55;;
19521;SDS011;9905;52.126;5.596;2023-12-20T09:59:14;29.10;;;26.80;;
19521;SDS011;9905;52.126;5.596;2023-12-20T10:01:41;28.08;;;25.92;;
19521;SDS011;9905;52.126;5.596;2023-12-20T10:04:10;27.65;;;25.55;;
19521;SDS011;9905;52.126;5.596;2023-12-20T10:06:40;26.40;;;24.25;;
19521;SDS011;9905;52.126;5.596;2023-12-20T10:09:07;26.00;;;23.52;;
19521;SDS011;9905;52.126;5.596;2023-12-20T10:11:35;24.73;;;22.35;;
19521;SDS011;9905;52.126;5.596;2023-12-20T10:14:02;25.20;;;22.88;;
19521;SDS011;9905;52.126;5.596;2023-12-20T10:16:29;22.95;;;20.75;;
19521;SDS011;9905;52.126;5.596;2023-12-20T10:18:57;22.05;;;20.27;;
19521;SDS011;9905;52.126;5.596;2023-12-20T10:21:26;21.67;;;19.88;;
19521;SDS011;9905;52.126;5.596;2023-12-20T10:23:54;21.83;;;19.75;;
19521;SDS011;9905;52.126;5.596;2023-12-20T10:26:23;23.80;;;17.75;;
19521;SDS011;9905;52.126;5.596;2023-12-20T10:28:52;18.42;;;17.02;;
19521;SDS011;9905;52.126;5.596;2023-12-20T10:31:26;18.95;;;17.33;;
19521;SDS011;9905;52.126;5.596;2023-12-20T10:33:55;18.73;;;17.42;;
19521;SDS011;9905;52.126;5.596;2023-12-20T10:36:23;19.02;;;17.00;;
19521;SDS011;9905;52.126;5.596;2023-12-20T10:38:51;17.83;;;16.40;;
19521;SDS011;9905;52.126;5.596;2023-12-20T10:41:22;19.05;;;17.58;;
19521;SDS011;9905;52.126;5.596;2023-12-20T10:43:52;18.52;;;16.80;;
19521;SDS011;9905;52.126;5.596;2023-12-20T10:46:21;19.60;;;17.95;;
19521;SDS011;9905;52.126;5.596;2023-12-20T10:48:48;19.58;;;17.67;;
19521;SDS011;9905;52.126;5.596;2023-12-20T10:51:18;19.42;;;17.42;;
19521;SDS011;9905;52.126;5.596;2023-12-20T10:53:45;17.23;;;15.88;;
19521;SDS011;9905;52.126;5.596;2023-12-20T10:56:15;18.65;;;16.40;;
19521;SDS011;9905;52.126;5.596;2023-12-20T10:58:44;18.50;;;15.30;;
19521;SDS011;9905;52.126;5.596;2023-12-20T11:01:12;18.70;;;16.95;;
19521;SDS011;9905;52.126;5.596;2023-12-20T11:03:39;19.73;;;16.38;;
19521;SDS011;9905;52.126;5.596;2023-12-20T11:06:13;18.95;;;17.00;;
19521;SDS011;9905;52.126;5.596;2023-12-20T11:08:51;16.38;;;14.48;;
19521;SDS011;9905;52.126;5.596;2023-12-20T11:11:34;16.80;;;15.25;;
19521;SDS011;9905;52.126;5.596;2023-12-20T11:14:06;24.85;;;14.38;;
19521;SDS011;9905;52.126;5.596;2023-12-20T11:16:39;11.77;;;10.95;;
19521;SDS011;9905;52.126;5.596;2023-12-20T11:19:07;18.33;;;13.15;;
19521;SDS011;9905;52.126;5.596;2023-12-20T11:21:34;13.95;;;12.95;;
19521;SDS011;9905;52.126;5.596;2023-12-20T11:24:01;15.80;;;12.93;;
19521;SDS011;9905;52.126;5.596;2023-12-20T11:26:29;15.90;;;14.27;;
19521;SDS011;9905;52.126;5.596;2023-12-20T11:29:03;18.67;;;13.20;;
19521;SDS011;9905;52.126;5.596;2023-12-20T11:31:59;14.38;;;13.18;;
19521;SDS011;9905;52.126;5.596;2023-12-20T11:34:27;16.77;;;13.23;;
19521;SDS011;9905;52.126;5.596;2023-12-20T11:36:57;14.13;;;12.98;;
19521;SDS011;9905;52.126;5.596;2023-12-20T11:39:25;20.13;;;13.75;;
19521;SDS011;9905;52.126;5.596;2023-12-20T11:41:54;12.35;;;11.32;;
19521;SDS011;9905;52.126;5.596;2023-12-20T11:44:24;14.30;;;12.75;;
19521;SDS011;9905;52.126;5.596;2023-12-20T11:46:53;13.30;;;12.02;;
19521;SDS011;9905;52.126;5.596;2023-12-20T11:49:24;17.60;;;11.88;;
19521;SDS011;9905;52.126;5.596;2023-12-20T11:51:51;13.52;;;12.35;;
19521;SDS011;9905;52.126;5.596;2023-12-20T11:54:18;15.52;;;11.25;;
19521;SDS011;9905;52.126;5.596;2023-12-20T11:56:44;17.17;;;11.98;;
19521;SDS011;9905;52.126;5.596;2023-12-20T11:59:12;13.60;;;11.95;;
19521;SDS011;9905;52.126;5.596;2023-12-20T12:01:39;18.23;;;11.80;;
19521;SDS011;9905;52.126;5.596;2023-12-20T12:04:07;12.95;;;11.25;;
19521;SDS011;9905;52.126;5.596;2023-12-20T12:06:34;12.50;;;10.82;;
19521;SDS011;9905;52.126;5.596;2023-12-20T12:09:00;15.70;;;10.05;;
19521;SDS011;9905;52.126;5.596;2023-12-20T12:11:29;13.23;;;11.52;;
19521;SDS011;9905;52.126;5.596;2023-12-20T12:13:55;11.18;;;9.73;;
19521;SDS011;9905;52.126;5.596;2023-12-20T12:16:22;11.43;;;10.45;;
19521;SDS011;9905;52.126;5.596;2023-12-20T12:18:54;13.75;;;10.63;;
19521;SDS011;9905;52.126;5.596;2023-12-20T12:21:23;13.15;;;9.93;;
19521;SDS011;9905;52.126;5.596;2023-12-20T12:23:50;11.68;;;10.50;;
19521;SDS011;9905;52.126;5.596;2023-12-20T12:26:18;12.05;;;10.73;;
19521;SDS011;9905;52.126;5.596;2023-12-20T12:28:45;12.70;;;10.23;;
19521;SDS011;9905;52.126;5.596;2023-12-20T12:31:15;10.77;;;9.77;;
19521;SDS011;9905;52.126;5.596;2023-12-20T12:33:41;11.95;;;10.88;;
19521;SDS011;9905;52.126;5.596;2023-12-20T12:36:09;10.40;;;9.43;;
19521;SDS011;9905;52.126;5.596;2023-12-20T12:38:38;11.02;;;9.98;;
19521;SDS011;9905;52.126;5.596;2023-12-20T12:41:04;11.55;;;10.32;;
19521;SDS011;9905;52.126;5.596;2023-12-20T12:43:32;11.30;;;9.88;;
19521;SDS011;9905;52.126;5.596;2023-12-20T12:45:59;10.82;;;9.63;;
19521;SDS011;9905;52.126;5.596;2023-12-20T12:48:26;10.48;;;9.55;;
19521;SDS011;9905;52.126;5.596;2023-12-20T12:50:54;10.68;;;9.27;;
19521;SDS011;9905;52.126;5.596;2023-12-20T12:53:22;14.30;;;8.93;;
19521;SDS011;9905;52.126;5.596;2023-12-20T12:55:50;9.73;;;8.90;;
19521;SDS011;9905;52.126;5.596;2023-12-20T12:58:17;12.95;;;8.93;;
19521;SDS011;9905;52.126;5.596;2023-12-20T13:00:43;11.23;;;10.20;;
19521;SDS011;9905;52.126;5.596;2023-12-20T13:03:10;13.18;;;9.57;;
19521;SDS011;9905;52.126;5.596;2023-12-20T13:05:37;12.35;;;9.52;;
19521;SDS011;9905;52.126;5.596;2023-12-20T13:08:04;12.05;;;9.35;;
19521;SDS011;9905;52.126;5.596;2023-12-20T13:10:31;10.88;;;9.13;;
19521;SDS011;9905;52.126;5.596;2023-12-20T13:12:59;11.20;;;10.00;;
19521;SDS011;9905;52.126;5.596;2023-12-20T13:15:26;10.93;;;9.45;;
19521;SDS011;9905;52.126;5.596;2023-12-20T13:17:53;10.07;;;8.75;;
19521;SDS011;9905;52.126;5.596;2023-12-20T13:20:19;11.32;;;9.82;;
19521;SDS011;9905;52.126;5.596;2023-12-20T13:22:47;15.43;;;9.55;;
19521;SDS011;9905;52.126;5.596;2023-12-20T13:25:13;9.82;;;8.90;;
19521;SDS011;9905;52.126;5.596;2023-12-20T13:27:40;11.20;;;9.07;;
19521;SDS011;9905;52.126;5.596;2023-12-20T13:30:10;13.77;;;9.25;;
19521;SDS011;9905;52.126;5.596;2023-12-20T13:32:37;11.43;;;10.25;;
19521;SDS011;9905;52.126;5.596;2023-12-20T13:35:04;13.43;;;9.13;;
19521;SDS011;9905;52.126;5.596;2023-12-20T13:37:31;13.38;;;9.15;;
19521;SDS011;9905;52.126;5.596;2023-12-20T13:39:58;12.73;;;11.80;;
19521;SDS011;9905;52.126;5.596;2023-12-20T13:42:25;10.50;;;8.55;;
19521;SDS011;9905;52.126;5.596;2023-12-20T13:44:52;10.05;;;8.65;;
19521;SDS011;9905;52.126;5.596;2023-12-20T13:47:20;11.18;;;10.13;;
19521;SDS011;9905;52.126;5.596;2023-12-20T13:49:47;10.73;;;8.50;;
19521;SDS011;9905;52.126;5.596;2023-12-20T13:52:13;10.13;;;8.73;;
19521;SDS011;9905;52.126;5.596;2023-12-20T13:54:41;9.98;;;9.13;;
19521;SDS011;9905;52.126;5.596;2023-12-20T13:57:08;12.20;;;8.93;;
19521;SDS011;9905;52.126;5.596;2023-12-20T13:59:34;9.57;;;8.65;;
19521;SDS011;9905;52.126;5.596;2023-12-20T14:02:01;9.90;;;8.52;;
19521;SDS011;9905;52.126;5.596;2023-12-20T14:04:30;11.88;;;9.07;;
19521;SDS011;9905;52.126;5.596;2023-12-20T14:06:57;15.32;;;8.73;;
19521;SDS011;9905;52.126;5.596;2023-12-20T14:09:23;8.98;;;8.25;;
19521;SDS011;9905;52.126;5.596;2023-12-20T14:11:50;14.10;;;9.15;;
19521;SDS011;9905;52.126;5.596;2023-12-20T14:14:17;9.88;;;8.25;;
19521;SDS011;9905;52.126;5.596;2023-12-20T14:16:44;9.90;;;9.10;;
19521;SDS011;9905;52.126;5.596;2023-12-20T14:19:11;10.80;;;8.45;;
19521;SDS011;9905;52.126;5.596;2023-12-20T14:21:39;9.68;;;8.15;;
19521;SDS011;9905;52.126;5.596;2023-12-20T14:24:06;9.45;;;8.25;;
19521;SDS011;9905;52.126;5.596;2023-12-20T14:26:33;8.13;;;7.40;;
19521;SDS011;9905;52.126;5.596;2023-12-20T14:28:59;10.25;;;9.40;;
19521;SDS011;9905;52.126;5.596;2023-12-20T14:31:26;9.65;;;8.27;;
19521;SDS011;9905;52.126;5.596;2023-12-20T14:33:53;9.05;;;8.13;;
19521;SDS011;9905;52.126;5.596;2023-12-20T14:36:19;9.52;;;8.43;;